Time;durP1;ratioP1;P1;durP2;ratioP2;P2;SDS_P1;SDS_P2;PMS_P1;PMS_P2;Temp;Humidity;BMP_temperature;BMP_pressure;BME280_temperature;BME280_humidity;BME280_pressure;Samples;Min_cycle;Max_cycle;Signal;HPM_P1;HPM_P2
2023/01/24 00:01:34;;;;;;;1999.90;942.77;;;2.90;99.90;;;;;;5042955;28;20265;-53
2023/01/24 00:04:04;;;;;;;220.03;146.20;;;2.90;99.90;;;;;;5049637;28;20658;-52
2023/01/24 00:06:32;;;;;;;395.67;159.43;;;2.90;99.90;;;;;;5045197;28;20344;-53
2023/01/24 00:09:00;;;;;;;1999.90;815.50;;;2.90;99.90;;;;;;5050600;28;20209;-53
2023/01/24 00:11:28;;;;;;;1999.90;544.37;;;2.80;99.90;;;;;;5050924;28;20352;-53
2023/01/24 00:13:56;;;;;;;1999.90;692.77;;;2.70;99.90;;;;;;5050807;28;20797;-53
2023/01/24 00:16:24;;;;;;;1999.90;632.03;;;2.80;99.90;;;;;;5051443;28;20249;-53
2023/01/24 00:18:52;;;;;;;957.77;304.77;;;2.90;99.90;;;;;;5042222;28;20294;-52
2023/01/24 00:21:23;;;;;;;908.10;315.33;;;2.90;99.90;;;;;;5051329;28;20252;-52
2023/01/24 00:23:53;;;;;;;1776.03;437.17;;;2.90;99.90;;;;;;5051142;28;20267;-52
2023/01/24 00:26:23;;;;;;;538.40;170.33;;;2.90;99.90;;;;;;5045517;28;20258;-52
2023/01/24 00:28:51;;;;;;;1964.03;442.63;;;2.80;99.90;;;;;;5044192;28;20261;-52
2023/01/24 00:31:19;;;;;;;1999.90;757.93;;;2.90;99.90;;;;;;5043762;28;20222;-53
2023/01/24 00:33:48;;;;;;;1999.90;685.57;;;2.80;99.90;;;;;;5050765;28;20811;-52
2023/01/24 00:36:17;;;;;;;1999.90;576.67;;;2.80;99.90;;;;;;5036296;28;20632;-53
2023/01/24 00:38:46;;;;;;;798.07;297.77;;;2.80;99.90;;;;;;5050421;28;20275;-52
2023/01/24 00:41:14;;;;;;;1004.77;266.53;;;2.80;99.90;;;;;;5047314;28;20761;-52
2023/01/24 00:43:42;;;;;;;1999.90;388.27;;;2.80;99.90;;;;;;5039786;28;20691;-52
2023/01/24 00:46:10;;;;;;;1999.90;688.20;;;2.70;99.90;;;;;;5050348;28;20266;-52
2023/01/24 00:48:38;;;;;;;1999.90;498.47;;;2.80;99.90;;;;;;5050920;28;20206;-52
2023/01/24 00:51:07;;;;;;;1750.23;382.70;;;2.70;99.90;;;;;;5046064;28;20226;-52
2023/01/24 00:53:58;;;;;;;1999.90;646.50;;;2.70;99.90;;;;;;5049384;28;20581;-52
2023/01/24 00:56:26;;;;;;;1999.90;658.20;;;2.70;99.90;;;;;;5035859;28;20236;-52
2023/01/24 00:58:54;;;;;;;1927.33;545.53;;;2.80;99.90;;;;;;5042475;28;20251;-53
2023/01/24 01:01:22;;;;;;;1284.93;324.10;;;2.80;99.90;;;;;;5040786;28;20762;-53
2023/01/24 01:03:50;;;;;;;782.10;224.03;;;2.80;99.90;;;;;;5045861;28;20264;-52
2023/01/24 01:06:19;;;;;;;1676.10;434.37;;;2.80;99.90;;;;;;5046892;28;20254;-53
2023/01/24 01:08:47;;;;;;;1999.90;627.17;;;2.80;99.90;;;;;;5036200;28;20210;-53
2023/01/24 01:12:00;;;;;;;1999.90;827.93;;;2.80;99.90;;;;;;5045697;28;20256;-53
2023/01/24 01:14:30;;;;;;;1999.90;708.80;;;2.90;99.90;;;;;;5023522;28;20260;-52
2023/01/24 01:16:58;;;;;;;1999.90;625.90;;;2.90;99.90;;;;;;5049967;28;20213;-53
2023/01/24 01:19:27;;;;;;;352.80;154.23;;;2.80;99.90;;;;;;5049828;28;20722;-53
2023/01/24 01:21:55;;;;;;;1880.30;403.57;;;2.80;99.90;;;;;;5028643;28;20666;-53
2023/01/24 01:28:32;;;;;;;1999.90;636.83;;;2.70;99.90;;;;;;5027909;28;20266;-52
2023/01/24 01:34:49;;;;;;;1999.90;606.73;;;2.70;99.90;;;;;;5033460;28;20188;-53
2023/01/24 01:37:17;;;;;;;1999.90;759.50;;;2.70;99.90;;;;;;5049734;28;20261;-53
2023/01/24 01:39:45;;;;;;;141.30;87.03;;;2.80;99.90;;;;;;5049666;28;20244;-53
2023/01/24 01:42:14;;;;;;;1999.90;717.27;;;2.80;99.90;;;;;;5044723;28;20314;-53
2023/01/24 01:44:46;;;;;;;1999.90;518.30;;;2.90;99.90;;;;;;5047068;28;20240;-53
2023/01/24 01:47:22;;;;;;;772.23;191.30;;;2.80;99.90;;;;;;5041043;28;20661;-53
2023/01/24 01:49:57;;;;;;;1151.03;262.73;;;2.70;99.90;;;;;;5045162;28;20233;-53
2023/01/24 01:52:28;;;;;;;1090.33;323.30;;;2.70;99.90;;;;;;5044581;28;20236;-53
2023/01/24 01:55:00;;;;;;;753.80;172.67;;;2.70;99.90;;;;;;5021061;28;20239;-52
2023/01/24 01:57:31;;;;;;;1504.97;346.50;;;2.80;99.90;;;;;;5023063;28;20202;-53
2023/01/24 02:00:03;;;;;;;127.30;102.93;;;2.70;99.90;;;;;;5037043;28;20289;-53
2023/01/24 02:02:33;;;;;;;1999.90;726.23;;;2.70;99.90;;;;;;5031572;28;20245;-52
2023/01/24 02:05:05;;;;;;;1155.33;335.30;;;2.70;99.90;;;;;;5029666;28;20211;-53
2023/01/24 02:07:41;;;;;;;1999.90;888.77;;;2.70;99.90;;;;;;5019639;28;20259;-53
2023/01/24 02:10:10;;;;;;;1999.90;999.90;;;2.80;99.90;;;;;;5029242;28;20722;-53
2023/01/24 02:12:42;;;;;;;1157.37;315.90;;;2.90;99.90;;;;;;5019796;28;20286;-52
2023/01/24 02:18:00;;;;;;;1999.90;897.57;;;2.80;99.90;;;;;;5029198;28;20893;-53
2023/01/24 02:20:38;;;;;;;1172.73;353.17;;;2.70;99.90;;;;;;5029482;28;20233;-52
2023/01/24 02:23:25;;;;;;;839.43;317.97;;;2.70;99.90;;;;;;5028758;28;20301;-53
2023/01/24 02:26:04;;;;;;;631.13;208.97;;;2.70;99.90;;;;;;5017082;28;20272;-53
2023/01/24 02:28:33;;;;;;;757.33;263.90;;;2.70;99.90;;;;;;5029098;28;20207;-53
2023/01/24 02:31:03;;;;;;;1440.20;334.83;;;2.70;99.90;;;;;;5029130;28;20316;-53
2023/01/24 02:33:32;;;;;;;1999.90;896.10;;;2.70;99.90;;;;;;5032261;28;20219;-53
2023/01/24 02:36:15;;;;;;;1999.90;659.80;;;2.80;99.90;;;;;;5022438;28;20303;-52
2023/01/24 02:38:46;;;;;;;1999.90;767.40;;;2.80;99.90;;;;;;5035542;28;20237;-53
2023/01/24 02:41:18;;;;;;;1999.90;930.80;;;2.90;99.90;;;;;;5035812;28;20227;-53
2023/01/24 02:43:50;;;;;;;1999.90;536.53;;;2.80;99.90;;;;;;5035015;28;20241;-52
2023/01/24 02:46:18;;;;;;;887.33;247.93;;;2.60;99.90;;;;;;5035740;28;20769;-53
2023/01/24 02:48:46;;;;;;;1012.93;260.37;;;2.70;99.90;;;;;;5026469;28;20302;-52
2023/01/24 02:54:00;;;;;;;1999.90;945.60;;;2.70;99.90;;;;;;5035249;28;20246;-52
2023/01/24 02:59:15;;;;;;;1999.90;625.43;;;2.70;99.90;;;;;;5035317;28;20300;-53
2023/01/24 03:01:43;;;;;;;1999.90;611.73;;;2.60;99.90;;;;;;5034971;28;20266;-52
2023/01/24 03:04:12;;;;;;;800.70;216.17;;;2.70;99.90;;;;;;5035032;28;20688;-52
2023/01/24 03:06:40;;;;;;;1539.33;441.43;;;2.70;99.90;;;;;;5035174;28;20280;-53
2023/01/24 03:09:19;;;;;;;1999.90;565.63;;;2.80;99.90;;;;;;5035139;28;20210;-53
2023/01/24 03:11:50;;;;;;;1999.90;997.37;;;2.70;99.90;;;;;;5035167;28;20626;-52
2023/01/24 03:36:31;;;;;;;72.53;65.70;;;2.50;99.90;;;;;;5035377;28;20213;-53
2023/01/24 03:41:44;;;;;;;1999.90;430.77;;;2.60;99.90;;;;;;5034449;28;20312;-53
2023/01/24 03:44:14;;;;;;;1263.80;364.90;;;2.60;99.90;;;;;;5032848;28;20739;-53
2023/01/24 03:46:42;;;;;;;1999.90;573.57;;;2.70;99.90;;;;;;5026707;28;20273;-53
2023/01/24 03:49:10;;;;;;;673.17;249.50;;;2.60;99.90;;;;;;5031278;28;20234;-53
2023/01/24 03:54:24;;;;;;;222.10;147.27;;;2.70;99.90;;;;;;5018607;28;20289;-52
2023/01/24 03:56:52;;;;;;;1293.67;337.97;;;2.70;99.90;;;;;;5031708;28;20296;-53
2023/01/24 03:59:21;;;;;;;145.17;88.90;;;2.60;99.90;;;;;;5031617;28;20233;-52
2023/01/24 04:01:49;;;;;;;481.53;174.03;;;2.60;99.90;;;;;;5030948;28;20739;-52
2023/01/24 04:04:17;;;;;;;1999.90;995.00;;;2.60;99.90;;;;;;5031277;28;20667;-53
2023/01/24 04:06:45;;;;;;;1999.90;481.73;;;2.70;99.90;;;;;;5031522;28;20313;-53
2023/01/24 04:09:13;;;;;;;443.67;172.13;;;2.60;99.90;;;;;;5031559;28;20299;-53
2023/01/24 04:11:41;;;;;;;718.13;264.63;;;2.60;99.90;;;;;;5031043;28;20334;-53
2023/01/24 04:14:09;;;;;;;1404.17;399.57;;;2.60;99.90;;;;;;5031253;28;20242;-53
2023/01/24 04:16:38;;;;;;;1999.90;516.67;;;2.60;99.90;;;;;;5031044;28;20246;-53
2023/01/24 04:19:06;;;;;;;803.97;249.10;;;2.60;99.90;;;;;;5031181;28;20293;-52
2023/01/24 04:21:34;;;;;;;510.27;210.90;;;2.60;99.90;;;;;;5029116;28;20240;-52
2023/01/24 04:24:02;;;;;;;56.67;35.97;;;2.60;99.90;;;;;;5031008;28;20214;-53
2023/01/24 04:26:30;;;;;;;1999.90;374.80;;;2.50;99.90;;;;;;5030700;28;20207;-52
2023/01/24 04:28:58;;;;;;;102.07;91.43;;;2.50;99.90;;;;;;5027849;28;20301;-53
2023/01/24 04:31:26;;;;;;;455.27;155.27;;;2.60;99.90;;;;;;5030822;28;20646;-52
2023/01/24 04:33:56;;;;;;;1641.67;328.87;;;2.60;99.90;;;;;;5030668;28;20214;-53
2023/01/24 04:36:24;;;;;;;1999.90;493.20;;;2.60;99.90;;;;;;5030808;28;20241;-53
2023/01/24 04:38:52;;;;;;;124.87;83.00;;;2.60;99.90;;;;;;5030207;28;20676;-53
2023/01/24 04:41:20;;;;;;;135.00;103.70;;;2.60;99.90;;;;;;5030588;28;20676;-52
2023/01/24 04:43:48;;;;;;;1809.50;361.80;;;2.60;99.90;;;;;;5030663;28;20206;-53
2023/01/24 04:46:16;;;;;;;1999.90;564.53;;;2.60;99.90;;;;;;5031106;28;20238;-53
2023/01/24 04:48:44;;;;;;;85.53;71.73;;;2.50;99.90;;;;;;5030500;28;20336;-53
2023/01/24 04:51:13;;;;;;;48.27;36.43;;;2.50;99.90;;;;;;5030673;28;20320;-53
2023/01/24 04:53:42;;;;;;;1999.90;619.00;;;2.60;99.90;;;;;;5029911;28;20281;-52
2023/01/24 04:56:11;;;;;;;228.43;84.17;;;2.60;99.90;;;;;;5030021;28;20651;-53
2023/01/24 04:58:39;;;;;;;64.60;55.93;;;2.60;99.90;;;;;;5030247;28;20668;-53
2023/01/24 05:01:07;;;;;;;1893.87;354.27;;;2.60;99.90;;;;;;5030476;28;20818;-53
2023/01/24 05:03:35;;;;;;;564.27;236.03;;;2.50;99.90;;;;;;5029965;28;20233;-53
2023/01/24 05:06:03;;;;;;;177.87;84.60;;;2.50;99.90;;;;;;5029164;28;20715;-53
2023/01/24 05:08:32;;;;;;;199.00;88.93;;;2.50;99.90;;;;;;5029927;28;20310;-53
2023/01/24 05:11:02;;;;;;;89.83;66.67;;;2.50;99.90;;;;;;5030039;28;20269;-53
2023/01/24 05:13:30;;;;;;;71.07;61.13;;;2.60;99.90;;;;;;5030071;28;20204;-52
2023/01/24 05:15:58;;;;;;;104.70;93.83;;;2.60;99.90;;;;;;5029940;28;20303;-53
2023/01/24 05:18:26;;;;;;;90.00;77.83;;;2.60;99.90;;;;;;5029845;28;20948;-52
2023/01/24 05:20:54;;;;;;;82.43;74.10;;;2.60;99.90;;;;;;5029978;28;20266;-51
2023/01/24 05:23:22;;;;;;;1999.90;938.43;;;2.60;99.90;;;;;;5029389;28;20722;-52
2023/01/24 05:25:51;;;;;;;1902.30;515.40;;;2.70;99.90;;;;;;5029950;28;20302;-53
2023/01/24 05:28:19;;;;;;;313.30;117.03;;;2.70;99.90;;;;;;5029117;28;20262;-53
2023/01/24 05:30:47;;;;;;;244.27;146.93;;;2.60;99.90;;;;;;5027513;28;20330;-52
2023/01/24 05:33:15;;;;;;;1663.73;296.63;;;2.60;99.90;;;;;;5024437;28;20206;-53
2023/01/24 05:35:44;;;;;;;87.23;77.83;;;2.60;99.90;;;;;;5030094;28;20283;-53
2023/01/24 05:38:12;;;;;;;860.17;264.30;;;2.60;99.90;;;;;;5029572;28;20215;-53
2023/01/24 05:40:40;;;;;;;132.90;63.87;;;2.60;99.90;;;;;;5029569;28;20276;-53
2023/01/24 05:43:10;;;;;;;235.23;167.53;;;2.60;99.90;;;;;;5029054;28;20299;-52
2023/01/24 05:45:38;;;;;;;592.00;212.53;;;2.60;99.90;;;;;;5029636;28;20258;-52
2023/01/24 05:48:06;;;;;;;1237.13;346.37;;;2.60;99.90;;;;;;5029189;28;20226;-52
2023/01/24 05:50:34;;;;;;;1535.03;488.43;;;2.50;99.90;;;;;;5029456;28;20310;-52
2023/01/24 05:53:03;;;;;;;1613.77;389.03;;;2.60;99.90;;;;;;5029346;28;20218;-53
2023/01/24 05:55:31;;;;;;;1999.90;546.93;;;2.50;99.90;;;;;;5029198;28;20297;-52
2023/01/24 05:58:00;;;;;;;1999.90;577.27;;;2.30;99.90;;;;;;5018111;28;20240;-53
2023/01/24 06:00:29;;;;;;;968.53;291.63;;;2.30;99.90;;;;;;5029450;28;20281;-52
2023/01/24 06:03:02;;;;;;;207.23;171.77;;;2.30;99.90;;;;;;5029453;28;20210;-53
2023/01/24 06:05:30;;;;;;;963.57;252.27;;;2.20;99.90;;;;;;5016595;28;20243;-53
2023/01/24 06:07:58;;;;;;;603.77;230.07;;;2.30;99.90;;;;;;5028481;28;20227;-53
2023/01/24 06:10:26;;;;;;;1999.90;838.37;;;2.30;99.90;;;;;;5018277;28;20273;-53
2023/01/24 06:12:54;;;;;;;1999.90;573.17;;;2.40;99.90;;;;;;5029052;28;20239;-53
2023/01/24 06:15:22;;;;;;;1999.90;999.90;;;2.40;99.90;;;;;;5029561;28;20202;-53
2023/01/24 06:17:52;;;;;;;1999.90;691.27;;;2.40;99.90;;;;;;5029567;28;20572;-52
2023/01/24 06:20:21;;;;;;;1999.90;800.43;;;2.30;99.90;;;;;;5028940;28;20309;-52
2023/01/24 06:22:53;;;;;;;216.53;124.77;;;2.20;99.90;;;;;;5023572;28;20246;-53
2023/01/24 06:25:24;;;;;;;320.47;157.30;;;2.20;99.90;;;;;;5029164;28;20688;-53
2023/01/24 06:27:53;;;;;;;1999.90;655.50;;;2.20;99.90;;;;;;5029393;28;20310;-52
2023/01/24 06:30:21;;;;;;;1999.90;966.27;;;2.20;99.90;;;;;;5028979;28;20317;-52
2023/01/24 06:33:07;;;;;;;610.60;249.87;;;2.20;99.90;;;;;;5029203;28;20241;-53
2023/01/24 06:35:43;;;;;;;1999.90;921.73;;;2.20;99.90;;;;;;5028980;28;20237;-53
2023/01/24 06:38:20;;;;;;;1999.90;874.60;;;2.20;99.90;;;;;;5028568;28;20206;-53
2023/01/24 06:40:51;;;;;;;438.57;140.63;;;2.20;99.90;;;;;;5029013;28;20313;-53
2023/01/24 06:43:20;;;;;;;1752.33;501.00;;;2.20;99.90;;;;;;5028815;28;20220;-52
2023/01/24 06:45:48;;;;;;;1999.90;556.93;;;2.20;99.90;;;;;;5027614;28;20205;-53
2023/01/24 06:48:18;;;;;;;1993.27;458.50;;;2.10;99.90;;;;;;5021376;28;20284;-53
2023/01/24 06:50:47;;;;;;;474.80;193.77;;;2.10;99.90;;;;;;5028903;28;20734;-53
2023/01/24 06:53:15;;;;;;;1999.90;413.43;;;2.10;99.90;;;;;;5028610;28;20293;-53
2023/01/24 06:55:46;;;;;;;907.63;243.50;;;2.00;99.90;;;;;;5039159;28;20245;-50
2023/01/24 06:58:14;;;;;;;764.93;204.83;;;2.00;99.90;;;;;;5037777;28;20242;-49
2023/01/24 07:00:42;;;;;;;906.43;284.33;;;2.10;99.90;;;;;;5028919;28;20321;-50
2023/01/24 07:03:10;;;;;;;1999.90;940.27;;;2.10;99.90;;;;;;5028211;28;20208;-49
2023/01/24 07:05:40;;;;;;;234.83;140.07;;;2.20;99.90;;;;;;5028852;28;20203;-50
2023/01/24 07:08:08;;;;;;;92.13;73.87;;;2.20;99.90;;;;;;5026489;28;20698;-50
2023/01/24 07:10:38;;;;;;;47.67;42.20;;;2.20;99.90;;;;;;5038356;28;20273;-51
2023/01/24 07:13:07;;;;;;;609.20;151.97;;;2.20;99.90;;;;;;5028782;28;20290;-50
2023/01/24 07:15:35;;;;;;;295.30;129.17;;;2.20;99.90;;;;;;5028742;28;20234;-50
2023/01/24 07:18:06;;;;;;;1999.90;596.87;;;2.20;99.90;;;;;;5028833;28;20207;-50
2023/01/24 07:20:35;;;;;;;132.07;96.83;;;2.20;99.90;;;;;;5032106;28;20288;-50
2023/01/24 07:23:05;;;;;;;121.73;104.73;;;2.20;99.90;;;;;;5032415;28;20206;-50
2023/01/24 07:25:36;;;;;;;54.47;44.83;;;2.30;99.90;;;;;;5020406;28;20235;-50
2023/01/24 07:28:05;;;;;;;91.97;82.03;;;2.30;99.90;;;;;;5026369;28;20616;-50
2023/01/24 07:30:33;;;;;;;1962.83;524.47;;;2.40;99.90;;;;;;5032129;28;20501;-50
2023/01/24 07:33:01;;;;;;;1999.90;582.93;;;2.40;99.90;;;;;;5031639;28;20215;-49
2023/01/24 07:35:29;;;;;;;1927.97;552.57;;;2.50;99.90;;;;;;5031641;28;20737;-50
2023/01/24 07:37:59;;;;;;;1506.00;307.07;;;2.40;99.90;;;;;;5031956;28;20212;-51
2023/01/24 07:40:29;;;;;;;1999.90;997.60;;;2.20;99.90;;;;;;5031079;28;20225;-50
2023/01/24 07:42:59;;;;;;;1946.67;561.93;;;2.30;99.90;;;;;;5031853;28;20238;-51
2023/01/24 07:45:27;;;;;;;1999.90;856.87;;;2.20;99.90;;;;;;5031737;28;20293;-49
2023/01/24 07:47:56;;;;;;;1999.90;740.13;;;2.30;99.90;;;;;;5026035;28;20545;-52
2023/01/24 07:50:25;;;;;;;1999.90;999.90;;;2.20;99.90;;;;;;5026746;28;20325;-52
2023/01/24 07:52:53;;;;;;;1999.90;637.33;;;2.30;99.90;;;;;;5031309;28;20726;-52
2023/01/24 07:55:22;;;;;;;1482.07;412.97;;;2.30;99.90;;;;;;5031229;28;20239;-52
2023/01/24 07:57:51;;;;;;;209.57;110.00;;;2.20;99.90;;;;;;5031312;28;20686;-52
2023/01/24 08:00:20;;;;;;;101.37;90.43;;;2.20;99.90;;;;;;5031438;28;20351;-53
2023/01/24 08:02:50;;;;;;;736.63;241.37;;;2.20;99.90;;;;;;5031394;28;20203;-53
2023/01/24 08:05:18;;;;;;;1999.90;999.90;;;2.20;99.90;;;;;;5031517;28;20784;-52
2023/01/24 08:07:46;;;;;;;504.13;176.67;;;2.40;99.90;;;;;;5031385;28;20682;-53
2023/01/24 08:10:14;;;;;;;1999.90;651.40;;;2.30;99.90;;;;;;5031338;28;20262;-53
2023/01/24 08:12:42;;;;;;;1999.90;855.50;;;2.30;99.90;;;;;;5031321;28;20306;-53
2023/01/24 08:15:11;;;;;;;1341.07;253.23;;;2.30;99.90;;;;;;5026656;28;20211;-53
2023/01/24 08:17:39;;;;;;;549.97;197.07;;;2.20;99.90;;;;;;5024277;28;20301;-52
2023/01/24 08:20:09;;;;;;;655.37;280.90;;;2.20;99.90;;;;;;5030836;28;20235;-53
2023/01/24 08:22:39;;;;;;;870.10;209.93;;;2.20;99.90;;;;;;5031308;28;20206;-52
2023/01/24 08:25:23;;;;;;;170.23;124.90;;;2.20;99.90;;;;;;5031389;28;20294;-52
2023/01/24 08:27:52;;;;;;;1069.80;264.20;;;2.20;99.90;;;;;;5026698;28;20217;-52
2023/01/24 08:30:22;;;;;;;1999.90;490.17;;;2.30;99.90;;;;;;5029351;28;20261;-53
2023/01/24 08:32:59;;;;;;;1999.90;647.67;;;2.30;99.90;;;;;;5030938;28;20228;-52
2023/01/24 08:35:27;;;;;;;1999.90;999.90;;;2.40;99.90;;;;;;5030950;28;20202;-53
2023/01/24 08:37:55;;;;;;;1903.57;637.50;;;2.50;99.90;;;;;;5030499;28;20744;-53
2023/01/24 08:40:23;;;;;;;1999.90;798.30;;;2.40;99.90;;;;;;5030765;28;20246;-52
2023/01/24 08:42:52;;;;;;;509.07;175.20;;;2.40;99.90;;;;;;5030284;28;20206;-52
2023/01/24 08:45:22;;;;;;;655.57;202.67;;;2.30;99.90;;;;;;5030446;28;20702;-53
2023/01/24 08:47:52;;;;;;;1999.90;596.00;;;2.30;99.90;;;;;;5030694;28;20210;-52
2023/01/24 08:50:21;;;;;;;1999.90;999.90;;;2.30;99.90;;;;;;5030652;28;20233;-52
2023/01/24 08:52:50;;;;;;;148.10;94.83;;;2.50;99.90;;;;;;5030017;28;20832;-53
2023/01/24 08:55:17;;;;;;;1999.90;641.57;;;2.40;99.90;;;;;;5037676;28;20271;-52
2023/01/24 08:57:46;;;;;;;1999.90;877.70;;;2.40;99.90;;;;;;5046467;28;20206;-52
2023/01/24 09:00:15;;;;;;;840.87;250.63;;;2.50;99.90;;;;;;5040325;28;20313;-53
2023/01/24 09:02:44;;;;;;;176.30;127.47;;;2.40;99.90;;;;;;5030468;28;20210;-52
2023/01/24 09:05:12;;;;;;;476.27;154.43;;;2.30;99.90;;;;;;5020584;28;20329;-52
2023/01/24 09:07:41;;;;;;;1999.90;808.00;;;2.30;99.90;;;;;;5030107;28;20209;-53
2023/01/24 09:10:10;;;;;;;1155.13;347.50;;;2.40;99.90;;;;;;5024571;28;20222;-52
2023/01/24 09:12:38;;;;;;;1999.90;530.00;;;2.40;99.90;;;;;;5020101;28;20649;-53
2023/01/24 09:15:07;;;;;;;1711.27;373.07;;;2.40;99.90;;;;;;5029517;28;20234;-53
2023/01/24 09:17:35;;;;;;;1999.90;594.70;;;2.30;99.90;;;;;;5030369;28;20267;-53
2023/01/24 09:20:06;;;;;;;107.97;74.77;;;2.30;99.90;;;;;;5029711;28;20203;-53
2023/01/24 09:22:34;;;;;;;1999.90;474.67;;;2.40;99.90;;;;;;5029853;28;20238;-52
2023/01/24 09:25:03;;;;;;;1999.90;409.20;;;2.40;99.90;;;;;;5030102;28;20239;-53
2023/01/24 09:27:31;;;;;;;1999.90;568.73;;;2.40;99.90;;;;;;5030021;28;20268;-52
2023/01/24 09:29:59;;;;;;;613.97;192.63;;;2.40;99.90;;;;;;5018428;28;20323;-53
2023/01/24 09:32:28;;;;;;;94.83;84.90;;;2.40;99.90;;;;;;5029890;28;20269;-53
2023/01/24 09:34:56;;;;;;;930.60;227.70;;;2.40;99.90;;;;;;5029475;28;20295;-53
2023/01/24 09:37:26;;;;;;;889.53;223.23;;;2.50;99.90;;;;;;5029024;28;20289;-51
2023/01/24 09:39:55;;;;;;;670.70;193.67;;;2.50;99.90;;;;;;5029931;28;20210;-52
2023/01/24 09:42:32;;;;;;;1999.90;610.97;;;2.50;99.90;;;;;;5028193;28;20209;-53
2023/01/24 09:45:12;;;;;;;58.57;42.97;;;2.60;99.90;;;;;;5029625;28;20305;-53
2023/01/24 09:47:45;;;;;;;115.17;99.00;;;2.60;99.90;;;;;;5017474;28;20229;-52
2023/01/24 09:50:17;;;;;;;316.77;139.67;;;2.70;99.90;;;;;;5029645;28;20247;-53
2023/01/24 09:52:49;;;;;;;1999.90;864.50;;;2.70;99.90;;;;;;5029632;28;20250;-52
2023/01/24 09:55:22;;;;;;;1999.90;521.97;;;2.70;99.90;;;;;;5028905;28;20290;-53
2023/01/24 09:57:55;;;;;;;458.63;166.73;;;2.60;99.90;;;;;;5016934;28;20257;-53
2023/01/24 10:00:26;;;;;;;611.43;183.30;;;2.60;99.90;;;;;;5029970;28;20308;-53
2023/01/24 10:02:56;;;;;;;167.27;106.90;;;2.60;99.90;;;;;;5029292;28;20240;-53
2023/01/24 10:05:32;;;;;;;1582.97;342.00;;;2.70;99.90;;;;;;5029701;28;20313;-53
2023/01/24 10:08:13;;;;;;;70.57;62.80;;;2.70;99.90;;;;;;5029350;28;20240;-52
2023/01/24 10:10:49;;;;;;;1779.30;496.47;;;2.70;99.90;;;;;;5029358;28;20746;-53
2023/01/24 10:13:36;;;;;;;253.20;84.13;;;2.80;99.90;;;;;;5029040;28;20203;-53
2023/01/24 10:16:19;;;;;;;743.40;202.93;;;2.80;99.90;;;;;;5029672;28;20250;-53
2023/01/24 10:18:58;;;;;;;289.27;138.77;;;2.80;99.90;;;;;;5029232;28;20679;-52
2023/01/24 10:21:43;;;;;;;96.77;77.47;;;2.80;99.90;;;;;;5029450;28;20230;-53
2023/01/24 10:24:16;;;;;;;433.77;176.47;;;2.80;99.90;;;;;;5029428;28;20251;-52
2023/01/24 10:26:48;;;;;;;856.33;254.53;;;2.80;99.90;;;;;;5028928;28;20681;-53
2023/01/24 10:29:20;;;;;;;1017.13;256.10;;;2.90;99.90;;;;;;5029244;28;20297;-52
2023/01/24 10:31:55;;;;;;;1626.70;410.43;;;2.90;99.90;;;;;;5028944;28;20232;-53
2023/01/24 10:34:31;;;;;;;114.90;94.47;;;2.90;99.90;;;;;;5028843;28;20212;-52
2023/01/24 10:37:04;;;;;;;98.00;67.73;;;2.90;99.90;;;;;;5028386;28;20295;-52
2023/01/24 10:39:34;;;;;;;984.70;213.60;;;2.90;99.90;;;;;;5027427;28;20749;-52
2023/01/24 10:42:03;;;;;;;215.40;91.97;;;2.90;99.90;;;;;;5025532;28;20267;-53
2023/01/24 10:44:35;;;;;;;1805.30;422.80;;;3.00;99.90;;;;;;5021231;28;20222;-52
2023/01/24 10:47:38;;;;;;;530.80;217.07;;;3.00;99.90;;;;;;5020986;28;20243;-52
2023/01/24 10:50:08;;;;;;;718.37;284.30;;;3.00;99.90;;;;;;5026937;28;20262;-52
2023/01/24 10:52:36;;;;;;;766.60;223.47;;;3.00;99.90;;;;;;5028201;28;20462;-51
2023/01/24 10:55:25;;;;;;;637.27;194.87;;;3.00;99.90;;;;;;5031458;28;20249;-51
2023/01/24 10:57:54;;;;;;;65.60;58.90;;;2.90;99.90;;;;;;5032726;28;20717;-52
2023/01/24 11:00:30;;;;;;;94.57;74.50;;;2.90;99.90;;;;;;5032015;28;20685;-52
2023/01/24 11:03:00;;;;;;;646.97;154.63;;;3.00;99.90;;;;;;5019707;28;20674;-52
2023/01/24 11:05:40;;;;;;;1999.90;498.10;;;3.00;99.90;;;;;;5032444;28;20656;-53
2023/01/24 11:08:18;;;;;;;1999.90;444.47;;;3.10;99.90;;;;;;5032941;28;20235;-52
2023/01/24 11:10:51;;;;;;;1999.90;657.37;;;3.10;99.90;;;;;;5032273;28;20233;-52
2023/01/24 11:13:33;;;;;;;1000.07;224.40;;;3.10;99.90;;;;;;5019104;28;20299;-53
2023/01/24 11:16:04;;;;;;;75.63;68.03;;;3.10;99.90;;;;;;5024491;28;20744;-52
2023/01/24 11:18:34;;;;;;;64.57;56.43;;;3.10;99.90;;;;;;5032167;28;20300;-53
2023/01/24 11:21:12;;;;;;;887.00;287.67;;;3.10;99.90;;;;;;5032499;28;20228;-52
2023/01/24 11:23:40;;;;;;;1213.43;318.87;;;3.10;99.90;;;;;;5032016;28;20234;-52
2023/01/24 11:26:22;;;;;;;110.43;64.87;;;3.10;99.90;;;;;;5025379;28;20729;-52
2023/01/24 11:28:59;;;;;;;1940.57;443.93;;;3.10;99.90;;;;;;5018766;28;20207;-57
2023/01/24 11:31:36;;;;;;;1999.90;712.27;;;3.20;99.90;;;;;;5030527;28;20293;-52
2023/01/24 11:34:48;;;;;;;990.07;305.67;;;3.40;99.90;;;;;;5031603;28;20214;-52
2023/01/24 11:37:39;;;;;;;228.50;132.77;;;3.30;99.90;;;;;;4995486;28;20670;-53
2023/01/24 11:40:23;;;;;;;108.73;77.47;;;3.20;99.90;;;;;;5028218;28;20265;-52
2023/01/24 11:43:04;;;;;;;1999.90;581.37;;;3.20;99.90;;;;;;5031346;28;20232;-52
2023/01/24 11:45:43;;;;;;;1860.43;515.80;;;3.20;99.90;;;;;;5031547;28;20238;-52
2023/01/24 11:48:19;;;;;;;62.00;55.70;;;3.20;99.90;;;;;;5031659;28;20674;-52
2023/01/24 11:51:02;;;;;;;1522.40;491.77;;;3.10;99.90;;;;;;5031615;28;20742;-52
2023/01/24 11:53:58;;;;;;;296.53;104.17;;;3.20;99.90;;;;;;5030897;28;20225;-53
2023/01/24 11:56:34;;;;;;;63.87;56.83;;;3.20;99.90;;;;;;5032309;28;20233;-52
2023/01/24 11:59:22;;;;;;;1139.27;279.60;;;3.30;99.90;;;;;;5031077;28;20243;-52
2023/01/24 12:02:00;;;;;;;1999.90;680.33;;;3.30;99.90;;;;;;5030825;28;20739;-52
2023/01/24 12:04:46;;;;;;;542.43;174.30;;;3.10;99.90;;;;;;5023713;28;20550;-52
2023/01/24 12:07:23;;;;;;;1999.90;653.50;;;3.10;99.90;;;;;;5030606;28;20213;-52
2023/01/24 12:10:00;;;;;;;112.20;66.27;;;3.10;99.90;;;;;;5030566;28;20311;-52
2023/01/24 12:12:34;;;;;;;428.87;166.10;;;3.10;99.90;;;;;;5021242;28;20697;-52
2023/01/24 12:15:35;;;;;;;1999.90;990.43;;;3.00;99.90;;;;;;5030588;28;20243;-51
2023/01/24 12:18:29;;;;;;;1999.90;440.43;;;2.90;99.90;;;;;;5031088;28;20242;-53
2023/01/24 12:21:05;;;;;;;1046.27;262.23;;;2.90;99.90;;;;;;5031080;28;20635;-51
2023/01/24 12:23:49;;;;;;;440.63;161.93;;;3.00;99.90;;;;;;5037492;28;20211;-52
2023/01/24 12:26:21;;;;;;;1999.90;999.90;;;3.00;99.90;;;;;;5024126;28;21064;-56
2023/01/24 12:29:00;;;;;;;356.60;135.57;;;3.20;99.90;;;;;;5031097;28;20206;-53
2023/01/24 12:31:36;;;;;;;1999.90;695.30;;;3.00;99.90;;;;;;5031000;28;20236;-52
2023/01/24 12:34:15;;;;;;;1999.90;634.47;;;3.10;99.90;;;;;;5018488;28;20202;-53
2023/01/24 12:36:49;;;;;;;583.50;176.53;;;3.10;99.90;;;;;;5029976;28;20209;-53
2023/01/24 12:39:21;;;;;;;106.33;81.23;;;3.10;99.90;;;;;;5025874;28;20215;-52
2023/01/24 12:41:55;;;;;;;501.57;133.60;;;3.10;99.90;;;;;;5029107;28;20229;-52
2023/01/24 12:44:30;;;;;;;1615.37;371.27;;;3.20;99.90;;;;;;5030804;28;20340;-51
2023/01/24 12:47:32;;;;;;;1999.90;774.87;;;3.20;99.90;;;;;;5030877;28;20261;-52
2023/01/24 12:50:13;;;;;;;1999.90;650.67;;;3.20;99.90;;;;;;5027582;28;20216;-52
2023/01/24 12:52:47;;;;;;;1999.90;760.13;;;3.20;99.90;;;;;;5018807;28;20218;-50
2023/01/24 12:55:20;;;;;;;885.73;235.57;;;3.10;99.90;;;;;;5025018;28;20205;-52
2023/01/24 12:57:52;;;;;;;752.87;201.30;;;3.10;99.90;;;;;;5024424;28;20727;-53
2023/01/24 13:00:23;;;;;;;1999.90;986.83;;;3.10;99.90;;;;;;5030693;28;20232;-52
2023/01/24 13:03:29;;;;;;;222.83;112.00;;;3.10;99.90;;;;;;5023941;28;20336;-52
2023/01/24 13:06:02;;;;;;;1533.57;400.30;;;3.00;99.90;;;;;;5026592;28;20203;-53
2023/01/24 13:08:47;;;;;;;610.77;133.80;;;3.00;99.90;;;;;;5030584;28;20242;-53
2023/01/24 13:11:20;;;;;;;1563.40;432.73;;;2.90;99.90;;;;;;5020067;28;20230;-52
2023/01/24 13:13:58;;;;;;;1999.90;764.77;;;3.10;99.90;;;;;;5029575;28;20237;-52
2023/01/24 13:16:53;;;;;;;1999.90;567.37;;;3.00;99.90;;;;;;5029116;28;20307;-52
2023/01/24 13:19:40;;;;;;;1999.90;720.10;;;3.00;99.90;;;;;;5009491;28;20212;-52
2023/01/24 13:22:22;;;;;;;1999.90;554.77;;;3.00;99.90;;;;;;5017144;28;20277;-51